Time;durP1;ratioP1;P1;durP2;ratioP2;P2;SDS_P1;SDS_P2;PMS_P1;PMS_P2;Temp;Humidity;BMP_temperature;BMP_pressure;BME280_temperature;BME280_humidity;BME280_pressure;Samples;Min_cycle;Max_cycle;Signal;HPM_P1;HPM_P2
2022/01/11 00:00:44;;;;;;;27.70;17.43;;;-1.50;99.90;;;;;;5058407;28;20500;-54
2022/01/11 00:03:14;;;;;;;27.40;16.33;;;-1.60;99.90;;;;;;5058942;28;20443;-51
2022/01/11 00:05:48;;;;;;;26.70;17.07;;;-1.60;99.90;;;;;;5059087;28;20461;-50
2022/01/11 00:08:17;;;;;;;20.53;15.03;;;-1.60;99.90;;;;;;5057026;28;20441;-53
2022/01/11 00:10:53;;;;;;;22.97;15.60;;;-1.60;99.90;;;;;;5057463;28;20470;-50
2022/01/11 00:13:23;;;;;;;26.40;16.03;;;-1.70;99.90;;;;;;5057621;28;20572;-50
2022/01/11 00:15:50;;;;;;;24.33;16.00;;;-1.60;99.90;;;;;;5057245;28;20476;-51
2022/01/11 00:18:19;;;;;;;23.67;16.67;;;-1.70;99.90;;;;;;5057335;28;20463;-53
2022/01/11 00:20:46;;;;;;;22.13;15.03;;;-1.70;99.90;;;;;;5057376;28;20514;-53
2022/01/11 00:25:58;;;;;;;19.67;15.27;;;-1.80;99.90;;;;;;5056456;28;20441;-50
2022/01/11 00:28:27;;;;;;;23.33;14.67;;;-1.90;99.90;;;;;;5057609;28;20464;-54
2022/01/11 00:30:55;;;;;;;22.87;14.87;;;-1.90;99.90;;;;;;5057214;28;20465;-51
2022/01/11 00:33:33;;;;;;;21.73;15.30;;;-1.90;99.90;;;;;;5058910;28;20443;-54
2022/01/11 00:36:07;;;;;;;23.37;15.33;;;-2.00;99.90;;;;;;5058578;28;20533;-52
2022/01/11 00:38:36;;;;;;;25.93;17.73;;;-1.90;99.90;;;;;;5057550;28;20496;-51
2022/01/11 00:41:05;;;;;;;35.83;22.50;;;-1.90;99.90;;;;;;5058112;28;20821;-53
2022/01/11 00:43:34;;;;;;;35.10;20.83;;;-2.00;99.90;;;;;;5057240;28;20444;-50
2022/01/11 00:46:01;;;;;;;29.63;19.07;;;-2.00;99.90;;;;;;5058328;28;20466;-54
2022/01/11 00:48:35;;;;;;;27.80;17.00;;;-2.10;99.90;;;;;;5057799;28;20466;-52
2022/01/11 00:51:02;;;;;;;22.90;14.70;;;-2.10;99.90;;;;;;5058146;28;20472;-50
2022/01/11 00:53:29;;;;;;;30.40;16.80;;;-2.10;99.90;;;;;;5057974;28;20531;-53
2022/01/11 00:55:59;;;;;;;24.10;16.60;;;-2.00;99.90;;;;;;5058065;28;20458;-50
2022/01/11 00:58:28;;;;;;;21.90;15.27;;;-2.10;99.90;;;;;;5057067;28;20505;-54
2022/01/11 01:00:56;;;;;;;22.70;15.33;;;-2.10;99.90;;;;;;5057616;28;20493;-53
2022/01/11 01:03:26;;;;;;;24.37;15.73;;;-2.00;99.90;;;;;;5057564;28;20470;-49
2022/01/11 01:05:55;;;;;;;26.40;17.90;;;-2.10;99.90;;;;;;5057167;28;20470;-53
2022/01/11 01:08:28;;;;;;;26.93;16.97;;;-2.10;99.90;;;;;;5057672;28;20454;-51
2022/01/11 01:10:55;;;;;;;26.43;17.47;;;-2.10;99.90;;;;;;5056833;28;20460;-51
2022/01/11 01:13:24;;;;;;;28.70;16.40;;;-2.00;99.90;;;;;;5057142;28;20479;-52
2022/01/11 01:15:54;;;;;;;31.37;19.90;;;-2.10;99.90;;;;;;5057683;28;20463;-53
2022/01/11 01:18:26;;;;;;;29.93;17.20;;;-2.10;99.90;;;;;;5057873;28;20465;-54
2022/01/11 01:20:55;;;;;;;27.10;18.00;;;-2.00;99.90;;;;;;5055752;28;20462;-50
2022/01/11 01:23:23;;;;;;;28.87;17.93;;;-2.00;99.90;;;;;;5057464;28;20473;-52
2022/01/11 01:25:51;;;;;;;27.00;16.73;;;-2.10;99.90;;;;;;5057672;28;20817;-53
2022/01/11 01:28:18;;;;;;;26.53;17.17;;;-2.10;99.90;;;;;;5057642;28;20760;-52
2022/01/11 01:30:46;;;;;;;24.83;17.57;;;-2.10;99.90;;;;;;5056191;28;20455;-51
2022/01/11 01:33:13;;;;;;;27.87;16.10;;;-2.10;99.90;;;;;;5057356;28;20483;-52
2022/01/11 01:35:48;;;;;;;28.07;15.93;;;-2.20;99.90;;;;;;5057280;28;20516;-50
2022/01/11 01:38:21;;;;;;;20.10;13.70;;;-2.20;99.90;;;;;;5057360;28;20457;-53
2022/01/11 01:40:49;;;;;;;22.23;14.93;;;-2.20;99.90;;;;;;5056463;28;20923;-54
2022/01/11 01:43:16;;;;;;;22.03;15.10;;;-2.20;99.90;;;;;;5057178;28;20458;-49
2022/01/11 01:45:49;;;;;;;21.13;14.33;;;-2.10;99.90;;;;;;5056495;28;20488;-53
2022/01/11 01:48:16;;;;;;;22.83;14.67;;;-2.20;99.90;;;;;;5056541;28;20769;-50
2022/01/11 01:50:48;;;;;;;24.80;14.60;;;-2.20;99.90;;;;;;5056317;28;20790;-55
2022/01/11 01:53:16;;;;;;;18.37;14.40;;;-2.20;99.90;;;;;;5057067;28;20550;-53
2022/01/11 01:55:45;;;;;;;24.77;15.47;;;-2.30;99.90;;;;;;5056558;28;20524;-52
2022/01/11 01:58:16;;;;;;;20.90;14.17;;;-2.30;99.90;;;;;;5057273;28;20516;-53
2022/01/11 02:00:51;;;;;;;22.63;13.90;;;-2.30;99.90;;;;;;5056771;28;20497;-51
2022/01/11 02:03:25;;;;;;;24.57;15.20;;;-2.30;99.90;;;;;;5055811;28;20476;-52
2022/01/11 02:05:54;;;;;;;28.03;14.70;;;-2.20;99.90;;;;;;5056951;28;20523;-54
2022/01/11 02:08:22;;;;;;;23.20;14.87;;;-2.30;99.90;;;;;;5057025;28;20547;-50
2022/01/11 02:10:50;;;;;;;24.03;14.67;;;-2.30;99.90;;;;;;5056707;28;20795;-53
2022/01/11 02:13:17;;;;;;;25.10;16.37;;;-2.20;99.90;;;;;;5055795;28;20504;-53
2022/01/11 02:15:45;;;;;;;29.07;16.23;;;-2.30;99.90;;;;;;5056508;28;20812;-50
2022/01/11 02:18:14;;;;;;;32.90;17.63;;;-2.20;99.90;;;;;;5056954;28;20516;-50
2022/01/11 02:20:44;;;;;;;25.60;15.90;;;-2.20;99.90;;;;;;5056394;28;20580;-55
2022/01/11 02:23:11;;;;;;;25.07;14.90;;;-2.30;99.90;;;;;;5048815;28;20466;-55
2022/01/11 02:25:39;;;;;;;25.00;15.50;;;-2.30;99.90;;;;;;5056200;28;20470;-49
2022/01/11 02:28:07;;;;;;;27.83;15.80;;;-2.30;99.90;;;;;;5056978;28;20512;-53
2022/01/11 02:30:35;;;;;;;22.47;14.67;;;-2.30;99.90;;;;;;5056723;28;20462;-50
2022/01/11 02:33:08;;;;;;;23.37;16.10;;;-2.30;99.90;;;;;;5055895;28;20440;-53
2022/01/11 02:35:35;;;;;;;24.20;14.67;;;-2.20;99.90;;;;;;5056909;28;20840;-52
2022/01/11 02:38:04;;;;;;;21.00;13.40;;;-2.30;99.90;;;;;;5056796;28;20463;-52
2022/01/11 02:40:31;;;;;;;25.27;14.60;;;-2.40;99.90;;;;;;5056399;28;20520;-53
2022/01/11 02:42:58;;;;;;;24.20;13.23;;;-2.30;99.90;;;;;;5056434;28;20799;-49
2022/01/11 02:45:24;;;;;;;25.33;13.80;;;-2.40;99.90;;;;;;5056067;28;20465;-51
2022/01/11 02:47:52;;;;;;;23.30;15.67;;;-2.40;99.90;;;;;;5056429;28;20466;-49
2022/01/11 02:50:21;;;;;;;23.20;14.33;;;-2.30;99.90;;;;;;5056704;28;20454;-52
2022/01/11 02:52:48;;;;;;;21.70;13.30;;;-2.30;99.90;;;;;;5055997;28;20521;-55
2022/01/11 02:55:17;;;;;;;23.57;13.77;;;-2.30;99.90;;;;;;5059870;28;20556;-49
2022/01/11 02:57:44;;;;;;;18.73;12.43;;;-2.20;99.90;;;;;;5060169;28;20476;-54
2022/01/11 03:00:15;;;;;;;24.20;13.10;;;-2.30;99.90;;;;;;5060582;28;20544;-53
2022/01/11 03:02:42;;;;;;;19.17;11.60;;;-2.40;99.90;;;;;;5059869;28;20498;-51
2022/01/11 03:05:10;;;;;;;20.87;12.93;;;-2.40;99.90;;;;;;5059725;28;20827;-53
2022/01/11 03:07:38;;;;;;;19.10;12.90;;;-2.40;99.90;;;;;;5059924;28;20482;-54
2022/01/11 03:10:15;;;;;;;20.57;13.63;;;-2.40;99.90;;;;;;5060213;28;20497;-55
2022/01/11 03:12:44;;;;;;;20.87;12.03;;;-2.40;99.90;;;;;;5059347;28;20822;-51
2022/01/11 03:15:13;;;;;;;17.73;11.73;;;-2.30;99.90;;;;;;5059196;28;20473;-51
2022/01/11 03:17:41;;;;;;;22.70;13.50;;;-2.40;99.90;;;;;;5059321;28;20472;-52
2022/01/11 03:20:10;;;;;;;19.43;12.13;;;-2.40;99.90;;;;;;5060131;28;20494;-55
2022/01/11 03:22:37;;;;;;;16.23;11.13;;;-2.40;99.90;;;;;;5058642;28;20523;-50
2022/01/11 03:25:06;;;;;;;17.13;11.90;;;-2.50;99.90;;;;;;5059228;28;20516;-56
2022/01/11 03:27:33;;;;;;;18.07;12.20;;;-2.40;99.90;;;;;;5059601;28;20516;-53
2022/01/11 03:30:01;;;;;;;20.80;12.50;;;-2.30;99.90;;;;;;5060068;28;20458;-53
2022/01/11 03:32:28;;;;;;;19.53;12.40;;;-2.30;99.90;;;;;;5059534;28;20807;-53
2022/01/11 03:34:55;;;;;;;24.23;12.80;;;-2.30;99.90;;;;;;5058779;28;20903;-52
2022/01/11 03:37:22;;;;;;;18.03;11.33;;;-2.50;99.90;;;;;;5058748;28;20535;-56
2022/01/11 03:39:49;;;;;;;20.57;11.83;;;-2.40;99.90;;;;;;5059983;28;20526;-56
2022/01/11 03:42:17;;;;;;;17.57;12.50;;;-2.40;99.90;;;;;;5059477;28;20880;-55
2022/01/11 03:44:45;;;;;;;22.73;11.63;;;-2.50;99.90;;;;;;5058659;28;20494;-51
2022/01/11 03:47:13;;;;;;;22.80;12.67;;;-2.50;99.90;;;;;;5059302;28;20478;-57
2022/01/11 03:49:40;;;;;;;19.33;12.90;;;-2.40;99.90;;;;;;5059115;28;20466;-54
2022/01/11 03:52:08;;;;;;;18.07;11.83;;;-2.50;99.90;;;;;;5058364;28;21063;-52
2022/01/11 03:54:50;;;;;;;17.03;12.00;;;-2.60;99.90;;;;;;5059349;28;20462;-57
2022/01/11 03:57:18;;;;;;;16.17;10.73;;;-2.50;99.90;;;;;;5058437;28;20506;-58
2022/01/11 03:59:45;;;;;;;19.73;12.03;;;-2.60;99.90;;;;;;5059322;28;20525;-58
2022/01/11 04:02:13;;;;;;;19.33;11.70;;;-2.60;99.90;;;;;;5059378;28;20549;-56
2022/01/11 04:04:40;;;;;;;19.50;11.77;;;-2.60;99.90;;;;;;5058916;28;20515;-57
2022/01/11 04:07:08;;;;;;;17.83;11.67;;;-2.70;99.90;;;;;;5058047;28;20820;-57
2022/01/11 04:09:36;;;;;;;18.37;12.23;;;-2.60;99.90;;;;;;5059223;28;20462;-57
2022/01/11 04:12:03;;;;;;;20.13;12.53;;;-2.60;99.90;;;;;;5058763;28;20467;-56
2022/01/11 04:14:30;;;;;;;19.47;11.80;;;-2.70;99.90;;;;;;5059144;28;20459;-54
2022/01/11 04:16:59;;;;;;;17.90;11.60;;;-2.60;99.90;;;;;;5059071;28;20433;-55
2022/01/11 04:19:27;;;;;;;18.00;12.13;;;-2.70;99.90;;;;;;5058425;28;20895;-55
2022/01/11 04:21:54;;;;;;;17.90;11.40;;;-2.70;99.90;;;;;;5058922;28;20463;-55
2022/01/11 04:24:21;;;;;;;20.40;12.37;;;-2.70;99.90;;;;;;5057717;28;20498;-53
2022/01/11 04:26:48;;;;;;;15.93;10.50;;;-2.80;99.90;;;;;;5058792;28;20751;-56
2022/01/11 04:29:18;;;;;;;18.53;11.40;;;-2.70;99.90;;;;;;5058306;28;20471;-53
2022/01/11 04:31:45;;;;;;;18.43;11.37;;;-2.70;99.90;;;;;;5058675;28;20946;-56
2022/01/11 04:34:12;;;;;;;20.43;12.20;;;-2.70;99.90;;;;;;5058930;28;20462;-51
2022/01/11 04:36:41;;;;;;;17.53;11.47;;;-2.70;99.90;;;;;;5058482;28;20512;-52
2022/01/11 04:39:11;;;;;;;16.67;10.90;;;-2.70;99.90;;;;;;5058081;28;20535;-57
2022/01/11 04:41:41;;;;;;;17.60;10.40;;;-2.80;99.90;;;;;;5058480;28;20494;-57
2022/01/11 04:44:09;;;;;;;18.10;11.07;;;-2.80;99.90;;;;;;5058619;28;20880;-56
2022/01/11 04:46:36;;;;;;;18.03;11.70;;;-2.80;99.90;;;;;;5058252;28;20466;-58
2022/01/11 04:49:03;;;;;;;26.07;13.30;;;-2.70;99.90;;;;;;5057661;28;20451;-58
2022/01/11 04:51:33;;;;;;;17.03;10.93;;;-2.80;99.90;;;;;;5057606;28;20458;-57
2022/01/11 04:54:02;;;;;;;14.50;10.60;;;-2.70;99.90;;;;;;5057459;28;20938;-54
2022/01/11 04:56:29;;;;;;;15.70;10.87;;;-2.80;99.90;;;;;;5058465;28;20872;-56
2022/01/11 04:58:57;;;;;;;17.83;11.00;;;-2.80;99.90;;;;;;5057573;28;20466;-59
2022/01/11 05:01:24;;;;;;;22.07;12.30;;;-2.80;99.90;;;;;;5057394;28;20505;-56
2022/01/11 05:03:51;;;;;;;20.17;11.77;;;-2.80;99.90;;;;;;5058026;28;20467;-55
2022/01/11 05:06:19;;;;;;;22.40;11.17;;;-2.80;99.90;;;;;;5058453;28;20763;-54
2022/01/11 05:08:46;;;;;;;18.63;10.77;;;-2.90;99.90;;;;;;5057378;28;20469;-53
2022/01/11 05:11:14;;;;;;;20.27;12.10;;;-2.80;99.90;;;;;;5056960;28;20957;-57
2022/01/11 05:13:44;;;;;;;17.17;11.43;;;-2.80;99.90;;;;;;5066322;28;20490;-57
2022/01/11 05:16:11;;;;;;;16.20;10.33;;;-2.80;99.90;;;;;;5043930;28;20462;-52
2022/01/11 05:18:38;;;;;;;15.37;10.47;;;-2.70;99.90;;;;;;5057649;28;20532;-52
2022/01/11 05:21:06;;;;;;;21.03;11.97;;;-2.70;99.90;;;;;;5057317;28;20537;-55
2022/01/11 05:23:34;;;;;;;17.53;11.13;;;-2.70;99.90;;;;;;5056739;28;20444;-58
2022/01/11 05:26:01;;;;;;;18.30;11.37;;;-2.70;99.90;;;;;;5057964;28;20489;-57
2022/01/11 05:28:30;;;;;;;17.83;11.50;;;-2.60;99.90;;;;;;5056517;28;20763;-55
2022/01/11 05:30:57;;;;;;;15.83;10.77;;;-2.70;99.90;;;;;;5056198;28;20462;-53
2022/01/11 05:33:24;;;;;;;16.50;9.63;;;-2.80;99.90;;;;;;5056001;28;20843;-55
2022/01/11 05:35:51;;;;;;;19.53;11.17;;;-2.80;99.90;;;;;;5056631;28;20524;-59
2022/01/11 05:38:21;;;;;;;16.13;10.60;;;-2.80;99.90;;;;;;5055621;28;20486;-56
2022/01/11 05:40:48;;;;;;;17.20;11.00;;;-2.80;99.90;;;;;;5055507;28;20580;-53
2022/01/11 05:43:15;;;;;;;17.80;10.00;;;-2.80;99.90;;;;;;5055937;28;20471;-57
2022/01/11 05:45:44;;;;;;;17.20;12.17;;;-2.80;99.90;;;;;;5055663;28;20835;-56
2022/01/11 05:48:11;;;;;;;16.10;10.60;;;-2.80;99.90;;;;;;5050365;28;20800;-59
2022/01/11 05:50:38;;;;;;;16.20;10.73;;;-2.80;99.90;;;;;;5055558;28;20512;-54
2022/01/11 05:53:05;;;;;;;17.03;11.13;;;-2.80;99.90;;;;;;5053989;28;20769;-54
2022/01/11 05:55:32;;;;;;;17.47;11.40;;;-2.80;99.90;;;;;;5055784;28;20493;-55
2022/01/11 05:57:59;;;;;;;15.20;10.87;;;-2.80;99.90;;;;;;5055769;28;20458;-52
2022/01/11 06:00:29;;;;;;;16.50;10.80;;;-2.90;99.90;;;;;;5055628;28;20490;-56
2022/01/11 06:02:58;;;;;;;12.70;9.20;;;-2.90;99.90;;;;;;5055000;28;20761;-56
2022/01/11 06:05:25;;;;;;;20.93;12.53;;;-2.80;99.90;;;;;;5055559;28;20494;-53
2022/01/11 06:07:52;;;;;;;19.10;11.50;;;-2.80;99.90;;;;;;5055632;28;20470;-58
2022/01/11 06:10:20;;;;;;;16.87;10.20;;;-2.80;99.90;;;;;;5055693;28;20462;-53
2022/01/11 06:12:47;;;;;;;17.73;11.10;;;-2.80;99.90;;;;;;5054818;28;20485;-56
2022/01/11 06:15:14;;;;;;;16.17;10.10;;;-2.70;99.90;;;;;;5055908;28;20462;-56
2022/01/11 06:17:41;;;;;;;19.33;10.27;;;-2.70;99.90;;;;;;5055743;28;20462;-57
2022/01/11 06:20:11;;;;;;;13.83;9.90;;;-2.60;99.90;;;;;;5055552;28;20882;-57
2022/01/11 06:22:41;;;;;;;15.53;9.33;;;-2.60;99.90;;;;;;5054280;28;20559;-58
2022/01/11 06:25:09;;;;;;;18.37;10.40;;;-2.60;99.90;;;;;;5051755;28;20965;-58
2022/01/11 06:27:39;;;;;;;15.10;8.87;;;-2.70;99.90;;;;;;5055503;28;20896;-52
2022/01/11 06:30:11;;;;;;;18.50;9.97;;;-2.70;99.90;;;;;;5058805;28;20465;-58
2022/01/11 06:32:46;;;;;;;17.33;9.80;;;-2.80;99.90;;;;;;5059921;28;20569;-54
2022/01/11 06:35:17;;;;;;;13.90;9.73;;;-2.80;99.90;;;;;;5058151;28;20440;-53
2022/01/11 06:37:45;;;;;;;15.60;9.77;;;-2.70;99.90;;;;;;5060787;28;20798;-52
2022/01/11 06:40:13;;;;;;;16.33;9.63;;;-2.70;99.90;;;;;;5061495;28;20462;-60
2022/01/11 06:42:40;;;;;;;19.43;10.30;;;-2.70;99.90;;;;;;5061396;28;20466;-60
2022/01/11 06:45:07;;;;;;;16.77;10.63;;;-2.70;99.90;;;;;;5059207;28;20466;-61
2022/01/11 06:47:34;;;;;;;13.80;9.50;;;-2.60;99.90;;;;;;5060735;28;20466;-61
2022/01/11 06:50:02;;;;;;;17.77;10.80;;;-2.60;99.90;;;;;;5066929;28;20466;-60
2022/01/11 06:52:30;;;;;;;14.90;9.63;;;-2.60;99.90;;;;;;5052672;28;20453;-60
2022/01/11 06:55:00;;;;;;;12.93;10.13;;;-2.50;99.90;;;;;;5056993;28;20527;-60
2022/01/11 06:57:28;;;;;;;16.07;10.10;;;-2.50;99.90;;;;;;5059192;28;20466;-59
2022/01/11 06:59:55;;;;;;;14.80;9.63;;;-2.40;99.90;;;;;;5052341;28;20891;-59
2022/01/11 07:02:22;;;;;;;16.23;8.87;;;-2.30;99.90;;;;;;5057445;28;20575;-60
2022/01/11 07:04:49;;;;;;;12.50;9.23;;;-2.40;99.90;;;;;;5059706;28;20459;-60
2022/01/11 07:07:18;;;;;;;21.23;10.30;;;-2.40;99.90;;;;;;5059528;28;20481;-60
2022/01/11 07:09:49;;;;;;;10.20;8.80;;;-2.50;99.90;;;;;;5060590;28;20574;-60
2022/01/11 07:12:16;;;;;;;16.97;9.23;;;-2.50;99.90;;;;;;5057785;28;20517;-60
2022/01/11 07:14:46;;;;;;;13.23;9.63;;;-2.50;99.90;;;;;;5059535;28;20440;-58
2022/01/11 07:17:15;;;;;;;14.10;8.00;;;-2.60;99.90;;;;;;5057101;28;20469;-60
2022/01/11 07:19:42;;;;;;;13.33;9.40;;;-2.50;99.90;;;;;;5060323;28;20516;-58
2022/01/11 07:22:10;;;;;;;17.50;9.63;;;-2.50;99.90;;;;;;5059423;28;20486;-57
2022/01/11 07:24:37;;;;;;;15.70;8.70;;;-2.50;99.90;;;;;;5059168;28;20441;-57
2022/01/11 07:27:05;;;;;;;11.57;8.13;;;-2.60;99.90;;;;;;5059359;28;20532;-60
2022/01/11 07:29:33;;;;;;;13.23;8.57;;;-2.60;99.90;;;;;;5057111;28;20490;-60
2022/01/11 07:32:00;;;;;;;13.50;8.27;;;-2.60;99.90;;;;;;5059014;28;20454;-59
2022/01/11 07:34:27;;;;;;;18.80;9.40;;;-2.70;99.90;;;;;;5059419;28;20887;-61
2022/01/11 07:36:55;;;;;;;14.77;9.70;;;-2.70;99.90;;;;;;5056323;28;20466;-59
2022/01/11 07:39:22;;;;;;;15.40;8.63;;;-2.60;99.90;;;;;;5055385;28;20493;-59
2022/01/11 07:41:50;;;;;;;15.47;8.53;;;-2.60;99.90;;;;;;5059424;28;20490;-61
2022/01/11 07:44:19;;;;;;;19.33;9.43;;;-2.70;99.90;;;;;;5060206;28;20470;-60
2022/01/11 07:46:46;;;;;;;18.80;10.40;;;-2.70;99.90;;;;;;5058953;28;20562;-57
2022/01/11 07:49:14;;;;;;;13.40;9.20;;;-2.60;99.90;;;;;;5056898;28;20924;-60
2022/01/11 07:51:42;;;;;;;16.20;10.33;;;-2.60;99.90;;;;;;5054590;28;20508;-60
2022/01/11 07:54:09;;;;;;;16.37;9.60;;;-2.60;99.90;;;;;;5059511;28;20867;-60
2022/01/11 07:56:36;;;;;;;13.50;8.90;;;-2.50;99.90;;;;;;5058215;28;20470;-60
2022/01/11 07:59:03;;;;;;;13.40;8.53;;;-2.50;99.90;;;;;;5055002;28;20475;-60
2022/01/11 08:01:31;;;;;;;16.00;10.33;;;-2.50;99.90;;;;;;5056142;28;20518;-59
2022/01/11 08:03:59;;;;;;;13.57;9.37;;;-2.50;99.90;;;;;;5056152;28;20982;-58
2022/01/11 08:06:27;;;;;;;17.57;9.80;;;-2.40;99.90;;;;;;5058389;28;20498;-58
2022/01/11 08:08:54;;;;;;;16.30;10.77;;;-2.30;99.90;;;;;;5059435;28;20545;-59
2022/01/11 08:11:21;;;;;;;17.03;9.77;;;-2.20;99.90;;;;;;5059433;28;20458;-56
2022/01/11 08:13:48;;;;;;;13.20;9.40;;;-2.00;99.90;;;;;;5056217;28;20481;-59
2022/01/11 08:16:15;;;;;;;12.83;9.20;;;-1.80;99.90;;;;;;5058021;28;20540;-58
2022/01/11 08:18:43;;;;;;;16.27;9.17;;;-1.70;99.90;;;;;;5057868;28;20520;-58
2022/01/11 08:21:11;;;;;;;18.87;10.50;;;-1.50;99.90;;;;;;5059333;28;20516;-57
2022/01/11 08:23:40;;;;;;;15.53;9.67;;;-1.40;99.90;;;;;;5057323;28;20466;-59
2022/01/11 08:26:07;;;;;;;14.40;9.20;;;-1.40;99.90;;;;;;5058261;28;20504;-59
2022/01/11 08:28:34;;;;;;;16.70;9.83;;;-1.10;99.90;;;;;;5058594;28;20901;-57
2022/01/11 08:31:01;;;;;;;19.17;9.97;;;-0.90;99.90;;;;;;5058832;28;20508;-57
2022/01/11 08:33:34;;;;;;;15.20;9.80;;;-0.70;99.90;;;;;;5058380;28;20558;-57
2022/01/11 08:36:04;;;;;;;13.73;9.20;;;-0.60;99.90;;;;;;5058453;28;20464;-58
2022/01/11 08:38:33;;;;;;;19.37;9.50;;;-0.40;99.90;;;;;;5057719;28;20812;-59
2022/01/11 08:41:00;;;;;;;46.63;27.17;;;-0.20;99.90;;;;;;5058027;28;20559;-56
2022/01/11 08:43:27;;;;;;;42.57;24.47;;;0.00;99.90;;;;;;5058778;28;21047;-58
2022/01/11 08:45:58;;;;;;;21.33;12.27;;;0.20;99.90;;;;;;5054221;28;20440;-59
2022/01/11 08:48:25;;;;;;;14.93;9.90;;;0.30;99.90;;;;;;5054254;28;20748;-59
2022/01/11 08:50:54;;;;;;;15.27;9.60;;;0.60;99.90;;;;;;5045908;28;20513;-57
2022/01/11 08:53:23;;;;;;;15.00;8.70;;;0.70;99.90;;;;;;5057631;28;20771;-56
2022/01/11 08:55:51;;;;;;;13.77;9.30;;;0.60;99.90;;;;;;5057958;28;20508;-58
2022/01/11 08:58:21;;;;;;;15.77;9.60;;;0.60;99.90;;;;;;5055990;28;20462;-58
2022/01/11 09:00:51;;;;;;;11.70;9.17;;;0.90;99.90;;;;;;5046419;28;20465;-59
2022/01/11 09:03:19;;;;;;;14.77;9.40;;;1.10;99.90;;;;;;5057423;28;20466;-59
2022/01/11 09:05:46;;;;;;;15.50;9.67;;;1.50;99.90;;;;;;5057269;28;20759;-56
2022/01/11 09:08:13;;;;;;;11.97;9.00;;;1.60;99.90;;;;;;5057026;28;20462;-59
2022/01/11 09:10:41;;;;;;;13.67;9.07;;;1.70;99.90;;;;;;5056956;28;20488;-59
2022/01/11 09:13:11;;;;;;;14.10;8.60;;;1.80;99.90;;;;;;5052170;28;20536;-59
2022/01/11 09:15:38;;;;;;;11.80;8.50;;;2.20;99.90;;;;;;5049516;28;20837;-58
2022/01/11 09:18:05;;;;;;;10.33;7.80;;;2.60;99.90;;;;;;5054713;28;20836;-61
2022/01/11 09:20:33;;;;;;;12.70;8.20;;;2.70;99.90;;;;;;5057039;28;20929;-61
2022/01/11 09:23:00;;;;;;;15.27;8.47;;;2.90;99.90;;;;;;5056522;28;20544;-62
2022/01/11 09:25:27;;;;;;;10.97;7.73;;;3.00;99.90;;;;;;5058283;28;20466;-62
2022/01/11 09:27:57;;;;;;;9.47;6.53;;;2.90;99.90;;;;;;5058191;28;20896;-63
2022/01/11 09:30:27;;;;;;;8.10;7.20;;;3.20;99.90;;;;;;5055687;28;20524;-63
2022/01/11 09:32:55;;;;;;;12.07;9.20;;;3.80;99.90;;;;;;5058229;28;20454;-62
2022/01/11 09:35:22;;;;;;;16.60;9.00;;;4.10;99.90;;;;;;5056722;28;20478;-62
2022/01/11 09:37:52;;;;;;;30.97;18.00;;;4.20;99.90;;;;;;5058414;28;20502;-62
2022/01/11 09:40:19;;;;;;;42.70;22.53;;;4.50;99.90;;;;;;5052123;28;20463;-62
2022/01/11 09:42:46;;;;;;;36.17;19.17;;;4.60;99.90;;;;;;5056396;28;20526;-60
2022/01/11 09:45:17;;;;;;;37.40;20.13;;;4.80;99.90;;;;;;5056345;28;20461;-61
2022/01/11 09:47:45;;;;;;;23.87;13.97;;;4.90;99.90;;;;;;5057737;28;20466;-61
2022/01/11 09:50:14;;;;;;;35.07;19.00;;;4.90;1.00;;;;;;5058375;28;20896;-61
2022/01/11 09:52:42;;;;;;;23.53;16.07;;;5.00;99.90;;;;;;5056632;28;20466;-61
2022/01/11 09:55:11;;;;;;;20.20;13.73;;;5.00;12.00;;;;;;5057932;28;20470;-62
2022/01/11 09:57:40;;;;;;;19.20;12.77;;;5.00;16.20;;;;;;5055922;28;20466;-62
2022/01/11 10:00:10;;;;;;;24.70;14.40;;;5.20;8.50;;;;;;5056797;28;20528;-62
2022/01/11 10:02:38;;;;;;;20.73;12.13;;;5.40;2.70;;;;;;5054451;28;20494;-62
2022/01/11 10:05:08;;;;;;;12.63;8.53;;;5.50;1.00;;;;;;5057065;28;20520;-62
2022/01/11 10:07:51;;;;;;;12.70;9.43;;;5.60;1.00;;;;;;5055243;28;20472;-63
2022/01/11 10:10:19;;;;;;;17.80;9.13;;;5.70;1.00;;;;;;5056826;28;20466;-63
2022/01/11 10:12:51;;;;;;;14.03;9.30;;;5.80;1.00;;;;;;5045270;28;21020;-63
2022/01/11 10:15:29;;;;;;;12.73;8.80;;;5.90;1.00;;;;;;5051315;28;20469;-63
2022/01/11 10:17:59;;;;;;;9.57;7.93;;;6.10;1.00;;;;;;5056002;28;20568;-63
2022/01/11 10:20:27;;;;;;;13.13;10.17;;;6.30;1.00;;;;;;5057212;28;20524;-63
2022/01/11 10:22:58;;;;;;;11.73;8.97;;;6.30;1.00;;;;;;5055556;28;20504;-63
2022/01/11 10:25:26;;;;;;;14.30;8.90;;;6.70;1.00;;;;;;5057139;28;20758;-63
2022/01/11 10:27:58;;;;;;;18.40;10.33;;;6.90;1.00;;;;;;5057240;28;20470;-63
2022/01/11 10:30:28;;;;;;;13.50;9.77;;;7.00;1.00;;;;;;5056345;28;20470;-63
2022/01/11 10:33:00;;;;;;;14.23;10.43;;;7.10;1.00;;;;;;5056271;28;20466;-63
2022/01/11 10:35:30;;;;;;;13.80;9.83;;;7.10;1.00;;;;;;5056493;28;20565;-63
2022/01/11 10:38:00;;;;;;;18.70;10.00;;;7.30;1.00;;;;;;5056431;28;20741;-62
2022/01/11 10:40:32;;;;;;;12.40;9.70;;;7.30;1.00;;;;;;5055125;28;20470;-62
2022/01/11 10:43:04;;;;;;;16.97;11.43;;;7.20;1.00;;;;;;5055894;28;20493;-62
2022/01/11 10:45:34;;;;;;;14.80;9.13;;;7.40;1.00;;;;;;5056828;28;20466;-63
2022/01/11 10:48:05;;;;;;;16.93;9.70;;;7.50;1.00;;;;;;5056538;28;20556;-62
2022/01/11 10:50:36;;;;;;;12.33;9.27;;;7.60;1.00;;;;;;5055408;28;20462;-62
2022/01/11 10:53:06;;;;;;;17.87;9.80;;;7.80;1.00;;;;;;5055449;28;20567;-63
2022/01/11 10:55:35;;;;;;;10.97;8.67;;;7.70;1.00;;;;;;5056335;28;20871;-63
2022/01/11 10:58:08;;;;;;;13.60;9.37;;;7.70;1.00;;;;;;5056360;28;20887;-63
2022/01/11 11:00:39;;;;;;;17.60;9.67;;;7.60;1.00;;;;;;5055581;28;20785;-63
2022/01/11 11:03:10;;;;;;;16.60;9.93;;;7.60;1.00;;;;;;5056142;28;20956;-63
2022/01/11 11:05:45;;;;;;;11.60;8.53;;;8.30;1.00;;;;;;5055971;28;20462;-63
2022/01/11 11:08:14;;;;;;;16.03;9.40;;;8.60;1.00;;;;;;5056182;28;20855;-63
2022/01/11 11:10:46;;;;;;;17.37;10.30;;;8.70;1.00;;;;;;5055203;28;20922;-63
2022/01/11 11:13:27;;;;;;;17.20;9.40;;;8.80;1.00;;;;;;5043777;28;20989;-63
2022/01/11 11:15:56;;;;;;;13.20;9.40;;;8.90;1.00;;;;;;5059463;28;20457;-63
2022/01/11 11:18:37;;;;;;;15.63;9.03;;;9.00;1.00;;;;;;5059102;28;20955;-63
2022/01/11 11:21:32;;;;;;;14.00;8.83;;;9.10;1.00;;;;;;5066853;28;20469;-63
2022/01/11 11:24:00;;;;;;;15.97;9.90;;;9.10;1.00;;;;;;5039182;28;20807;-63
2022/01/11 11:26:30;;;;;;;10.00;8.03;;;9.20;1.00;;;;;;5058765;28;20736;-63
2022/01/11 11:28:57;;;;;;;11.50;8.40;;;9.00;1.00;;;;;;5053903;28;21028;-63
2022/01/11 11:31:25;;;;;;;10.63;8.70;;;8.80;1.00;;;;;;5057856;28;20466;-63
2022/01/11 11:33:55;;;;;;;14.87;7.93;;;8.80;1.00;;;;;;5059054;28;20557;-63
2022/01/11 11:36:22;;;;;;;10.90;7.10;;;8.80;1.00;;;;;;5054613;28;20527;-63
2022/01/11 11:38:56;;;;;;;10.07;7.63;;;8.90;1.00;;;;;;5057667;28;20509;-62
2022/01/11 11:41:25;;;;;;;10.47;7.30;;;9.00;1.00;;;;;;5057192;28;20473;-63
2022/01/11 11:44:36;;;;;;;10.53;6.37;;;9.20;1.00;;;;;;5056784;28;20943;-63
2022/01/11 11:47:05;;;;;;;13.10;6.27;;;9.30;1.00;;;;;;5040964;28;20458;-62
2022/01/11 11:49:45;;;;;;;6.13;5.40;;;8.90;1.00;;;;;;5052833;28;20571;-64
2022/01/11 11:52:23;;;;;;;10.00;5.40;;;8.90;1.00;;;;;;5060883;28;20969;-64
2022/01/11 11:54:53;;;;;;;9.37;6.07;;;9.00;1.00;;;;;;5054358;28;20554;-63
2022/01/11 11:57:25;;;;;;;12.37;7.20;;;9.10;1.00;;;;;;5056263;28;20471;-64
2022/01/11 11:59:55;;;;;;;7.63;5.57;;;9.10;1.00;;;;;;5049464;28;20512;-64
2022/01/11 12:02:37;;;;;;;10.43;6.13;;;9.20;1.00;;;;;;5051688;28;20548;-64
2022/01/11 12:05:10;;;;;;;9.10;6.00;;;9.30;1.00;;;;;;5057155;28;20462;-64
2022/01/11 12:07:41;;;;;;;10.00;5.60;;;9.50;1.00;;;;;;5054371;28;20884;-64
2022/01/11 12:10:14;;;;;;;7.63;5.53;;;9.40;1.00;;;;;;5057782;28;20470;-64
2022/01/11 12:12:44;;;;;;;9.87;6.10;;;9.10;1.00;;;;;;5056633;28;20548;-63
2022/01/11 12:15:41;;;;;;;15.23;6.80;;;8.90;1.00;;;;;;5057685;28;20469;-64
2022/01/11 12:18:15;;;;;;;11.13;6.90;;;8.80;1.00;;;;;;4992011;28;20457;-64
2022/01/11 12:20:46;;;;;;;13.23;10.00;;;9.00;1.00;;;;;;5040243;28;20493;-63
2022/01/11 12:23:20;;;;;;;28.63;17.30;;;9.20;1.00;;;;;;5055396;28;20555;-63
2022/01/11 12:25:52;;;;;;;44.73;27.40;;;9.10;1.00;;;;;;5045827;28;20609;-63
2022/01/11 12:28:26;;;;;;;33.33;19.53;;;9.00;1.00;;;;;;5057273;28;20536;-63
2022/01/11 12:31:26;;;;;;;24.03;14.00;;;9.10;1.00;;;;;;5048347;28;20466;-63
2022/01/11 12:33:53;;;;;;;8.33;6.70;;;9.40;1.00;;;;;;5054786;28;20968;-63
2022/01/11 12:36:25;;;;;;;12.80;11.20;;;9.50;1.00;;;;;;5055659;28;20467;-63
2022/01/11 12:39:04;;;;;;;12.43;8.90;;;9.50;1.00;;;;;;5054398;28;20523;-63
2022/01/11 12:41:33;;;;;;;8.90;7.57;;;9.20;1.00;;;;;;5057028;28;20466;-62
2022/01/11 12:44:24;;;;;;;12.27;8.20;;;9.10;1.00;;;;;;5058894;28;20534;-63
2022/01/11 12:46:54;;;;;;;10.27;7.80;;;9.10;1.00;;;;;;5043577;28;20502;-62
2022/01/11 12:49:21;;;;;;;10.50;6.80;;;9.00;1.00;;;;;;5054944;28;20466;-62